createdAt,value
2023-01-25T00:00:00.529Z,0.0
2023-01-25T00:05:00.499Z,0.0
2023-01-25T00:10:00.555Z,0.0
2023-01-25T00:15:00.501Z,0.0
2023-01-25T00:20:00.531Z,0.0
2023-01-25T00:25:00.530Z,0.0
2023-01-25T00:30:00.551Z,0.0
2023-01-25T00:35:00.453Z,0.0
2023-01-25T00:40:00.538Z,2.2
2023-01-25T00:45:00.481Z,0.0
2023-01-25T00:50:00.591Z,1.4
2023-01-25T00:55:01.072Z,0.0
2023-01-25T01:00:00.605Z,0.0
2023-01-25T01:05:00.649Z,0.0
2023-01-25T01:10:00.606Z,0.0
2023-01-25T01:15:00.467Z,0.0
2023-01-25T01:20:00.566Z,0.0
2023-01-25T01:25:00.513Z,0.0
2023-01-25T01:30:00.588Z,0.0
2023-01-25T01:35:00.535Z,0.0
2023-01-25T01:40:00.552Z,1.8
2023-01-25T01:45:00.557Z,0.0
2023-01-25T01:50:00.557Z,0.0
2023-01-25T01:55:00.470Z,0.0
2023-01-25T02:00:00.611Z,0.0
2023-01-25T02:05:00.634Z,0.0
2023-01-25T02:10:00.532Z,0.0
2023-01-25T02:15:00.460Z,0.0
2023-01-25T02:20:00.515Z,0.0
2023-01-25T02:25:00.558Z,0.0
2023-01-25T02:30:00.541Z,0.0
2023-01-25T02:35:00.502Z,0.0
2023-01-25T02:40:00.584Z,0.0
2023-01-25T02:45:00.469Z,0.0
2023-01-25T02:50:00.521Z,0.0
2023-01-25T02:55:00.518Z,0.0
2023-01-25T03:00:00.595Z,0.0
2023-01-25T03:05:00.531Z,2.2
2023-01-25T03:10:00.515Z,0.0
2023-01-25T03:15:00.534Z,0.0
2023-01-25T03:20:00.592Z,1.4
2023-01-25T03:25:00.511Z,0.0
2023-01-25T03:30:00.521Z,0.0
2023-01-25T03:35:00.469Z,0.0
2023-01-25T03:40:00.604Z,0.0
2023-01-25T03:45:00.560Z,0.0
2023-01-25T03:50:00.558Z,0.0
2023-01-25T03:55:00.797Z,0.0
2023-01-25T04:00:00.531Z,0.0
2023-01-25T04:05:00.519Z,0.0
2023-01-25T04:10:00.554Z,0.0
2023-01-25T04:15:00.546Z,0.0
2023-01-25T04:20:00.578Z,0.0
2023-01-25T04:25:00.545Z,0.0
2023-01-25T04:30:00.518Z,0.0
2023-01-25T04:35:00.569Z,0.0
2023-01-25T04:40:00.576Z,0.0
2023-01-25T04:45:00.528Z,0.0
2023-01-25T04:50:00.565Z,0.0
2023-01-25T04:55:00.466Z,1.8
2023-01-25T05:00:00.585Z,0.0
2023-01-25T05:05:00.556Z,0.0
2023-01-25T05:10:00.507Z,1.8
2023-01-25T05:15:00.524Z,0.0
2023-01-25T05:20:00.652Z,0.0
2023-01-25T05:25:00.469Z,1.4
2023-01-25T05:30:00.739Z,0.0
2023-01-25T05:35:01.298Z,0.0
2023-01-25T05:40:00.609Z,0.0
2023-01-25T05:45:00.629Z,0.0
2023-01-25T05:50:00.574Z,0.0
2023-01-25T05:55:00.510Z,2.2
2023-01-25T06:00:00.525Z,1.4
2023-01-25T06:05:00.533Z,0.0
2023-01-25T06:10:00.521Z,1.1
2023-01-25T06:15:00.560Z,2.5
2023-01-25T06:20:00.541Z,2.2
2023-01-25T06:25:00.537Z,4.7
2023-01-25T06:30:00.563Z,0.0
2023-01-25T06:35:00.501Z,0.0
2023-01-25T06:40:00.614Z,0.0
2023-01-25T06:45:00.583Z,0.0
2023-01-25T06:50:00.528Z,3.6
2023-01-25T06:55:00.527Z,3.6
2023-01-25T07:00:00.517Z,6.5
2023-01-25T07:05:00.519Z,4.7
2023-01-25T07:10:00.633Z,6.5
2023-01-25T07:15:00.584Z,2.5
2023-01-25T07:20:00.601Z,6.5
2023-01-25T07:25:00.519Z,6.1
2023-01-25T07:30:00.510Z,5.4
2023-01-25T07:35:00.547Z,6.8
2023-01-25T07:40:00.535Z,2.9
2023-01-25T07:45:00.532Z,3.2
2023-01-25T07:50:00.556Z,1.8
2023-01-25T07:55:00.519Z,7.2
2023-01-25T08:00:00.541Z,6.5
2023-01-25T08:05:00.499Z,0.0
2023-01-25T08:10:00.503Z,6.1
2023-01-25T08:15:00.530Z,8.6
2023-01-25T08:20:00.525Z,4.3
2023-01-25T08:25:00.510Z,4.7
2023-01-25T08:30:00.622Z,4.0
2023-01-25T08:35:00.558Z,11.9
2023-01-25T08:40:00.548Z,2.9
2023-01-25T08:45:00.501Z,9.0
2023-01-25T08:50:00.669Z,5.4
2023-01-25T08:55:00.606Z,2.5
2023-01-25T09:00:00.555Z,6.5
2023-01-25T09:05:00.540Z,3.2
2023-01-25T09:10:00.513Z,5.8
2023-01-25T09:15:00.509Z,13.0
2023-01-25T09:20:00.551Z,7.9
2023-01-25T09:25:00.464Z,8.6
2023-01-25T09:30:18.653Z,9.4
2023-01-25T09:35:00.545Z,6.5
2023-01-25T09:40:00.771Z,5.8
2023-01-25T09:45:00.711Z,5.0
2023-01-25T09:50:00.516Z,6.5
2023-01-25T09:55:00.526Z,6.1
2023-01-25T10:00:02.280Z,11.9
2023-01-25T10:05:00.466Z,6.5
2023-01-25T10:10:00.534Z,6.1
2023-01-25T10:15:00.546Z,5.8
2023-01-25T10:20:00.885Z,13.0
2023-01-25T10:25:00.521Z,9.7
2023-01-25T10:30:00.539Z,10.1
2023-01-25T10:35:00.635Z,5.0
2023-01-25T10:40:00.501Z,10.8
2023-01-25T10:45:00.475Z,8.3
2023-01-25T10:50:00.550Z,9.7
2023-01-25T10:55:00.543Z,9.7
2023-01-25T11:00:00.568Z,6.8
2023-01-25T11:05:00.712Z,3.6
2023-01-25T11:10:00.604Z,13.3
2023-01-25T11:15:00.501Z,6.1
2023-01-25T11:20:00.534Z,4.3
2023-01-25T11:25:00.558Z,12.2
2023-01-25T11:30:00.522Z,16.2
2023-01-25T11:35:00.642Z,10.1
2023-01-25T11:40:00.765Z,6.5
2023-01-25T11:45:00.462Z,8.3
2023-01-25T11:50:00.546Z,14.8
2023-01-25T11:55:00.471Z,6.5
2023-01-25T12:00:00.595Z,7.6
2023-01-25T12:05:21.005Z,10.1
2023-01-25T12:10:00.551Z,6.5
2023-01-25T12:15:00.709Z,5.0
2023-01-25T12:20:00.669Z,13.7
2023-01-25T12:25:00.546Z,4.0
2023-01-25T12:30:00.623Z,13.3
2023-01-25T12:35:00.481Z,10.8
2023-01-25T12:40:00.543Z,11.2
2023-01-25T12:45:00.501Z,5.0
2023-01-25T12:50:00.631Z,2.9
2023-01-25T12:55:00.523Z,8.6
2023-01-25T13:00:00.559Z,7.6
2023-01-25T13:05:00.512Z,5.0
2023-01-25T13:10:00.541Z,7.9
2023-01-25T13:15:00.537Z,10.8
2023-01-25T13:20:00.617Z,6.1
2023-01-25T13:25:00.584Z,13.3
2023-01-25T13:30:00.682Z,13.0
2023-01-25T13:35:00.639Z,7.6
2023-01-25T13:40:07.745Z,10.1
2023-01-25T13:45:00.511Z,4.7
2023-01-25T13:50:00.642Z,9.4
2023-01-25T13:55:00.566Z,4.0
2023-01-25T14:00:11.636Z,8.3
2023-01-25T14:05:00.507Z,6.1
2023-01-25T14:10:00.665Z,9.0
2023-01-25T14:15:00.521Z,8.6
2023-01-25T14:20:00.550Z,10.8
2023-01-25T14:25:00.539Z,14.0
2023-01-25T14:30:00.689Z,3.6
2023-01-25T14:35:00.569Z,6.1
2023-01-25T14:40:00.583Z,2.5
2023-01-25T14:45:00.562Z,6.5
2023-01-25T14:50:00.567Z,13.0
2023-01-25T14:55:00.591Z,9.0
2023-01-25T15:00:00.568Z,5.8
2023-01-25T15:05:16.053Z,7.6
2023-01-25T15:10:00.574Z,9.4
2023-01-25T15:15:00.518Z,8.3
2023-01-25T15:20:00.579Z,13.0
2023-01-25T15:25:00.520Z,7.2
2023-01-25T15:30:00.540Z,9.7
2023-01-25T15:35:00.549Z,9.4
2023-01-25T15:40:00.519Z,7.2
2023-01-25T15:45:00.636Z,2.9
2023-01-25T15:50:00.744Z,9.7
2023-01-25T15:55:02.736Z,13.7
2023-01-25T16:00:02.915Z,13.7
2023-01-25T16:05:00.533Z,10.8
2023-01-25T16:10:00.848Z,3.6
2023-01-25T16:15:00.506Z,13.7
2023-01-25T16:20:00.598Z,10.8
2023-01-25T16:25:00.607Z,10.1
2023-01-25T16:30:00.576Z,13.3
2023-01-25T16:35:00.591Z,10.8
2023-01-25T16:40:00.554Z,10.1
2023-01-25T16:45:00.483Z,6.1
2023-01-25T16:50:00.561Z,9.0
2023-01-25T16:55:00.575Z,12.6
2023-01-25T17:00:03.526Z,6.5
2023-01-25T17:05:00.555Z,6.5
2023-01-25T17:10:00.584Z,4.7
2023-01-25T17:15:00.510Z,2.5
2023-01-25T17:20:00.532Z,3.2
2023-01-25T17:25:00.617Z,9.4
2023-01-25T17:30:00.572Z,5.0
2023-01-25T17:35:00.553Z,10.4
2023-01-25T17:40:00.586Z,4.7
2023-01-25T17:45:00.601Z,2.9
2023-01-25T17:50:00.542Z,9.4
2023-01-25T17:55:00.692Z,8.3
2023-01-25T18:00:00.551Z,7.2
2023-01-25T18:05:00.513Z,9.7
2023-01-25T18:10:00.644Z,8.3
2023-01-25T18:15:00.522Z,7.6
2023-01-25T18:20:00.657Z,8.3
2023-01-25T18:25:00.458Z,5.8
2023-01-25T18:30:00.645Z,8.3
2023-01-25T18:35:00.500Z,5.8
2023-01-25T18:40:00.539Z,6.1
2023-01-25T18:45:00.559Z,2.9
2023-01-25T18:50:00.944Z,5.0
2023-01-25T18:55:00.624Z,6.5
2023-01-25T19:00:00.541Z,11.9
2023-01-25T19:05:00.577Z,4.7
2023-01-25T19:10:02.484Z,5.8
2023-01-25T19:15:00.625Z,7.2
2023-01-25T19:20:00.585Z,10.4
2023-01-25T19:25:00.505Z,7.2
2023-01-25T19:30:02.483Z,6.5
2023-01-25T19:35:00.506Z,10.4
2023-01-25T19:40:00.581Z,3.2
2023-01-25T19:45:00.642Z,6.5
2023-01-25T19:50:00.587Z,5.8
2023-01-25T19:55:00.576Z,9.0
2023-01-25T20:00:00.678Z,13.3
2023-01-25T20:05:00.529Z,0.0
2023-01-25T20:10:00.517Z,0.0
2023-01-25T20:15:00.520Z,10.1
2023-01-25T20:20:00.594Z,8.6
2023-01-25T20:25:00.523Z,2.5
2023-01-25T20:30:00.518Z,7.2
2023-01-25T20:35:00.510Z,10.1
2023-01-25T20:40:00.554Z,10.1
2023-01-25T20:45:00.607Z,1.8
2023-01-25T20:50:00.720Z,6.1
2023-01-25T20:55:00.603Z,8.6
2023-01-25T21:00:00.549Z,6.8
2023-01-25T21:05:00.530Z,6.8
2023-01-25T21:10:00.520Z,3.6
2023-01-25T21:15:00.653Z,9.7
2023-01-25T21:20:00.501Z,12.2
2023-01-25T21:25:00.543Z,5.0
2023-01-25T21:30:00.734Z,4.3
2023-01-25T21:35:00.465Z,10.8
2023-01-25T21:40:00.582Z,7.6
2023-01-25T21:45:00.469Z,8.6
2023-01-25T21:50:00.747Z,4.7
2023-01-25T21:55:00.512Z,3.6
2023-01-25T22:00:00.674Z,3.2
2023-01-25T22:05:00.528Z,9.7
2023-01-25T22:10:00.534Z,9.7
2023-01-25T22:15:00.516Z,7.6
2023-01-25T22:20:00.523Z,5.8
2023-01-25T22:25:00.781Z,7.6
2023-01-25T22:30:00.623Z,5.8
2023-01-25T22:35:00.534Z,4.7
2023-01-25T22:40:00.514Z,5.0
2023-01-25T22:45:00.533Z,3.2
2023-01-25T22:50:00.630Z,4.3
2023-01-25T22:55:00.518Z,2.9
2023-01-25T23:00:00.690Z,3.2
2023-01-25T23:05:00.513Z,2.5
2023-01-25T23:10:00.524Z,0.0
2023-01-25T23:15:00.514Z,3.2
2023-01-25T23:20:00.541Z,7.2
2023-01-25T23:25:00.461Z,9.0
2023-01-25T23:30:00.513Z,5.0
2023-01-25T23:35:00.518Z,4.3
2023-01-25T23:40:00.515Z,3.2
2023-01-25T23:45:00.572Z,6.1
2023-01-25T23:50:00.567Z,4.0
2023-01-25T23:55:00.483Z,3.6
